Time;durP1;ratioP1;P1;durP2;ratioP2;P2;SDS_P1;SDS_P2;PMS_P1;PMS_P2;Temp;Humidity;BMP_temperature;BMP_pressure;BME280_temperature;BME280_humidity;BME280_pressure;Samples;Min_cycle;Max_cycle;Signal;HPM_P1;HPM_P2
2022/11/04 00:00:48;;;;;;;12.20;9.07;;;;;;;;;;6574103;28;20168;-86
2022/11/04 00:03:59;;;;;;;14.90;9.33;;;;;;;;;;6575379;28;20263;-86
2022/11/04 00:08:22;;;;;;;12.43;8.90;;;;;;;;;;6575102;28;20169;-86
2022/11/04 00:14:13;;;;;;;11.83;8.53;;;;;;;;;;6545766;28;20220;-86
2022/11/04 00:17:24;;;;;;;13.47;8.17;;;;;;;;;;6574582;28;20180;-86
2022/11/04 00:34:31;;;;;;;12.17;8.27;;;;;;;;;;6573951;28;20205;-86
2022/11/04 00:37:42;;;;;;;14.00;8.17;;;;;;;;;;6573332;28;20605;-86
2022/11/04 00:40:53;;;;;;;11.80;8.17;;;;;;;;;;6572169;28;20625;-86
2022/11/04 00:44:03;;;;;;;11.17;8.50;;;;;;;;;;6573489;28;20235;-86
2022/11/04 00:47:14;;;;;;;11.20;8.00;;;;;;;;;;6573404;28;20609;-85
2022/11/04 00:50:25;;;;;;;11.27;8.40;;;;;;;;;;6573134;28;20170;-87
2022/11/04 00:53:36;;;;;;;11.53;7.63;;;;;;;;;;6573374;28;20228;-86
2022/11/04 00:56:47;;;;;;;13.03;7.50;;;;;;;;;;6572764;28;20580;-86
2022/11/04 00:59:57;;;;;;;13.33;8.27;;;;;;;;;;6573245;28;20192;-86
2022/11/04 01:03:08;;;;;;;12.40;8.00;;;;;;;;;;6555988;28;20181;-87
2022/11/04 01:06:19;;;;;;;13.20;8.40;;;;;;;;;;6573642;28;20219;-86
2022/11/04 01:09:29;;;;;;;10.27;7.70;;;;;;;;;;6573399;28;20239;-86
2022/11/04 01:12:40;;;;;;;12.27;8.20;;;;;;;;;;6573568;28;20173;-86
2022/11/04 01:15:50;;;;;;;12.17;8.00;;;;;;;;;;6572942;28;20316;-86
2022/11/04 01:19:01;;;;;;;8.33;6.60;;;;;;;;;;6572675;28;20177;-86
2022/11/04 01:22:11;;;;;;;10.70;7.87;;;;;;;;;;6571990;28;20177;-86
2022/11/04 01:25:22;;;;;;;9.70;6.83;;;;;;;;;;6572188;28;20169;-86
2022/11/04 01:28:32;;;;;;;12.63;8.23;;;;;;;;;;6572590;28;20606;-86
2022/11/04 01:31:43;;;;;;;11.73;7.70;;;;;;;;;;6571504;28;20204;-86
2022/11/04 01:34:53;;;;;;;14.20;8.87;;;;;;;;;;6572443;28;20263;-86
2022/11/04 01:38:03;;;;;;;13.37;8.20;;;;;;;;;;6572371;28;20169;-86
2022/11/04 01:41:16;;;;;;;11.60;7.77;;;;;;;;;;6571858;28;20196;-86
2022/11/04 01:44:41;;;;;;;11.20;7.77;;;;;;;;;;6572648;28;20525;-86
2022/11/04 01:47:57;;;;;;;11.93;7.87;;;;;;;;;;6572872;28;20259;-86
2022/11/04 01:51:08;;;;;;;10.93;7.67;;;;;;;;;;6571009;28;20228;-86
2022/11/04 01:54:18;;;;;;;18.83;8.10;;;;;;;;;;6572031;28;20251;-86
2022/11/04 01:57:31;;;;;;;15.77;8.93;;;;;;;;;;6571304;28;20263;-86
2022/11/04 02:00:42;;;;;;;11.80;8.30;;;;;;;;;;6571237;28;20208;-85
2022/11/04 02:04:24;;;;;;;10.37;7.33;;;;;;;;;;6571087;28;20173;-86
2022/11/04 02:07:30;;;;;;;12.63;7.70;;;;;;;;;;6571697;28;20189;-85
2022/11/04 02:10:46;;;;;;;11.70;7.73;;;;;;;;;;6571227;28;20184;-86
2022/11/04 02:13:57;;;;;;;12.87;8.07;;;;;;;;;;6571295;28;20201;-86
2022/11/04 02:17:14;;;;;;;10.80;8.23;;;;;;;;;;6571196;28;20180;-86
2022/11/04 02:20:41;;;;;;;13.33;8.03;;;;;;;;;;6571256;28;20491;-86
2022/11/04 02:24:10;;;;;;;13.03;8.40;;;;;;;;;;6571087;28;20161;-86
2022/11/04 02:27:23;;;;;;;10.60;7.67;;;;;;;;;;6570654;28;20169;-86
2022/11/04 02:30:38;;;;;;;11.60;8.80;;;;;;;;;;6571644;28;20193;-85
2022/11/04 02:33:55;;;;;;;12.97;7.47;;;;;;;;;;6571861;28;20200;-87
2022/11/04 02:37:09;;;;;;;13.40;8.10;;;;;;;;;;6570809;28;20195;-87
2022/11/04 02:40:25;;;;;;;13.77;7.97;;;;;;;;;;6570809;28;20169;-87
2022/11/04 02:43:41;;;;;;;10.60;7.80;;;;;;;;;;6571423;28;20201;-87
2022/11/04 02:47:05;;;;;;;10.23;7.40;;;;;;;;;;6570642;28;20169;-87
2022/11/04 02:50:45;;;;;;;12.90;8.10;;;;;;;;;;6570557;28;20166;-86
2022/11/04 02:54:01;;;;;;;13.80;8.17;;;;;;;;;;6534164;28;20583;-86
2022/11/04 02:57:18;;;;;;;10.67;8.03;;;;;;;;;;6571216;28;20578;-87
2022/11/04 03:00:29;;;;;;;12.37;7.70;;;;;;;;;;6571052;28;20240;-86
2022/11/04 03:03:41;;;;;;;11.30;7.30;;;;;;;;;;6576551;28;20231;-86
2022/11/04 03:06:53;;;;;;;8.77;6.97;;;;;;;;;;6578545;28;20173;-87
2022/11/04 03:10:10;;;;;;;12.10;7.90;;;;;;;;;;6578772;28;20241;-88
2022/11/04 03:13:27;;;;;;;13.93;7.50;;;;;;;;;;6578759;28;20208;-88
2022/11/04 03:16:49;;;;;;;11.77;8.13;;;;;;;;;;6578791;28;20200;-87
2022/11/04 03:20:00;;;;;;;10.23;7.47;;;;;;;;;;6578471;28;20526;-87
2022/11/04 03:23:10;;;;;;;7.40;5.80;;;;;;;;;;6579126;28;20165;-86
2022/11/04 03:26:27;;;;;;;11.77;7.20;;;;;;;;;;6579149;28;20197;-86
2022/11/04 03:29:53;;;;;;;11.10;7.37;;;;;;;;;;6579114;28;20224;-86
2022/11/04 03:33:09;;;;;;;10.67;7.57;;;;;;;;;;6579061;28;20161;-86
2022/11/04 03:36:20;;;;;;;10.40;7.23;;;;;;;;;;6578681;28;20263;-86
2022/11/04 03:39:31;;;;;;;10.27;7.10;;;;;;;;;;6562016;28;20609;-86
2022/11/04 03:43:03;;;;;;;7.70;6.37;;;;;;;;;;6579296;28;20169;-86
2022/11/04 03:46:13;;;;;;;9.93;6.87;;;;;;;;;;6578354;28;20181;-86
2022/11/04 03:49:24;;;;;;;10.07;7.40;;;;;;;;;;6578861;28;20255;-86
2022/11/04 03:52:35;;;;;;;10.93;7.33;;;;;;;;;;6578654;28;20681;-86
2022/11/04 03:55:51;;;;;;;9.33;7.17;;;;;;;;;;6578494;28;20204;-86
2022/11/04 03:59:03;;;;;;;10.93;7.30;;;;;;;;;;6578505;28;20188;-86
2022/11/04 04:02:13;;;;;;;9.90;7.30;;;;;;;;;;6577939;28;20179;-86
2022/11/04 04:05:27;;;;;;;9.13;7.27;;;;;;;;;;6577933;28;20173;-86
2022/11/04 04:08:52;;;;;;;12.47;8.30;;;;;;;;;;6578220;28;20170;-86
2022/11/04 04:12:05;;;;;;;9.80;7.60;;;;;;;;;;6578619;28;20162;-86
2022/11/04 04:15:19;;;;;;;11.33;7.70;;;;;;;;;;6574796;28;20197;-86
2022/11/04 04:18:39;;;;;;;12.53;7.83;;;;;;;;;;6573731;28;20537;-87
2022/11/04 04:21:52;;;;;;;8.73;6.43;;;;;;;;;;6573636;28;20177;-87
2022/11/04 04:28:34;;;;;;;10.10;6.67;;;;;;;;;;6574217;28;20172;-86
2022/11/04 04:31:48;;;;;;;10.33;7.70;;;;;;;;;;6574010;28;20248;-87
2022/11/04 04:45:35;;;;;;;12.23;8.60;;;;;;;;;;6573498;28;20255;-87
2022/11/04 04:48:45;;;;;;;12.23;8.50;;;;;;;;;;6572941;28;20173;-87
2022/11/04 04:51:55;;;;;;;12.23;8.97;;;;;;;;;;6574026;28;20225;-86
2022/11/04 04:55:06;;;;;;;12.20;8.50;;;;;;;;;;6573126;28;20197;-86
2022/11/04 04:58:17;;;;;;;11.63;8.67;;;;;;;;;;6573421;28;20185;-86
2022/11/04 05:01:27;;;;;;;10.53;8.27;;;;;;;;;;6572608;28;20170;-86
2022/11/04 05:04:37;;;;;;;11.10;8.03;;;;;;;;;;6572542;28;20177;-87
2022/11/04 05:07:48;;;;;;;12.07;8.93;;;;;;;;;;6573593;28;20173;-87
2022/11/04 05:10:58;;;;;;;12.93;7.93;;;;;;;;;;6572828;28;20177;-86
2022/11/04 05:14:08;;;;;;;9.83;7.43;;;;;;;;;;6573009;28;20200;-86
2022/11/04 05:17:18;;;;;;;12.07;8.87;;;;;;;;;;6572293;28;20176;-86
2022/11/04 05:20:29;;;;;;;13.93;9.60;;;;;;;;;;6572227;28;20537;-86
2022/11/04 05:23:39;;;;;;;11.87;8.97;;;;;;;;;;6572126;28;20260;-86
2022/11/04 05:26:50;;;;;;;10.47;8.40;;;;;;;;;;6571422;28;20181;-86
2022/11/04 05:30:00;;;;;;;11.23;8.17;;;;;;;;;;6554767;28;20200;-85
2022/11/04 05:33:10;;;;;;;11.87;8.27;;;;;;;;;;6572551;28;20260;-85
2022/11/04 05:36:21;;;;;;;11.73;8.93;;;;;;;;;;6572828;28;20173;-86
2022/11/04 05:39:31;;;;;;;10.77;7.70;;;;;;;;;;6572093;28;20494;-86
2022/11/04 05:42:41;;;;;;;15.07;8.17;;;;;;;;;;6571683;28;20188;-88
2022/11/04 05:45:52;;;;;;;10.47;7.50;;;;;;;;;;6572244;28;20238;-88
2022/11/04 05:49:02;;;;;;;12.90;8.47;;;;;;;;;;6571664;28;20565;-88
2022/11/04 05:52:13;;;;;;;12.30;8.70;;;;;;;;;;6571979;28;20224;-87
2022/11/04 05:55:23;;;;;;;8.90;7.53;;;;;;;;;;6571773;28;20250;-87
2022/11/04 05:58:33;;;;;;;16.10;10.03;;;;;;;;;;6571203;28;20689;-87
2022/11/04 06:01:44;;;;;;;14.57;9.43;;;;;;;;;;6571895;28;20518;-86
2022/11/04 06:04:55;;;;;;;14.03;9.30;;;;;;;;;;6571841;28;20177;-86
2022/11/04 06:08:05;;;;;;;14.77;9.03;;;;;;;;;;6571026;28;20256;-86
2022/11/04 06:11:16;;;;;;;11.20;8.50;;;;;;;;;;6570730;28;20181;-86
2022/11/04 06:14:26;;;;;;;13.50;9.43;;;;;;;;;;6570783;28;20205;-86
2022/11/04 06:17:37;;;;;;;15.00;9.70;;;;;;;;;;6570796;28;20212;-86
2022/11/04 06:20:47;;;;;;;14.13;9.13;;;;;;;;;;6570773;28;20172;-85
2022/11/04 06:23:57;;;;;;;13.47;9.03;;;;;;;;;;6554524;28;20204;-85
2022/11/04 06:27:09;;;;;;;13.03;9.33;;;;;;;;;;6570969;28;20227;-86
2022/11/04 06:30:19;;;;;;;15.53;9.87;;;;;;;;;;6571692;28;20181;-86
2022/11/04 06:33:30;;;;;;;11.50;8.97;;;;;;;;;;6570822;28;20200;-86
2022/11/04 06:36:40;;;;;;;12.43;9.23;;;;;;;;;;6570417;28;20216;-86
2022/11/04 06:39:50;;;;;;;14.63;9.07;;;;;;;;;;6553933;28;20192;-86
2022/11/04 06:43:01;;;;;;;12.57;9.37;;;;;;;;;;6571463;28;20177;-86
2022/11/04 06:46:43;;;;;;;12.63;9.97;;;;;;;;;;6570806;28;20169;-87
2022/11/04 06:49:54;;;;;;;15.57;9.47;;;;;;;;;;6548104;28;20276;-86
2022/11/04 06:53:05;;;;;;;16.20;10.20;;;;;;;;;;6526761;28;1245331;-86
2022/11/04 06:56:15;;;;;;;13.37;9.47;;;;;;;;;;6570124;28;20586;-86
2022/11/04 06:59:25;;;;;;;15.47;10.00;;;;;;;;;;6570463;28;20176;-86
2022/11/04 07:02:37;;;;;;;14.20;10.03;;;;;;;;;;6552843;28;20204;-85
2022/11/04 07:05:47;;;;;;;13.63;8.70;;;;;;;;;;6571399;28;20256;-86
2022/11/04 07:08:59;;;;;;;14.13;9.30;;;;;;;;;;6571041;28;20176;-86
2022/11/04 07:12:09;;;;;;;16.83;9.60;;;;;;;;;;6570886;28;20529;-86
2022/11/04 07:15:19;;;;;;;15.77;9.63;;;;;;;;;;6570149;28;20215;-86
2022/11/04 07:18:30;;;;;;;13.47;9.73;;;;;;;;;;6571277;28;20185;-86
2022/11/04 07:21:40;;;;;;;13.00;9.23;;;;;;;;;;6570618;28;20510;-86
2022/11/04 07:24:50;;;;;;;13.73;9.60;;;;;;;;;;6570383;28;20189;-86
2022/11/04 07:28:01;;;;;;;12.67;9.10;;;;;;;;;;6570432;28;20192;-87
2022/11/04 07:31:12;;;;;;;16.23;9.90;;;;;;;;;;6581124;28;20546;-86
2022/11/04 07:34:22;;;;;;;12.43;9.03;;;;;;;;;;6582961;28;20206;-86
2022/11/04 07:37:33;;;;;;;13.87;10.67;;;;;;;;;;6582394;28;20169;-86
2022/11/04 07:40:43;;;;;;;12.33;9.37;;;;;;;;;;6583637;28;20211;-85
2022/11/04 07:43:53;;;;;;;13.37;8.97;;;;;;;;;;6580219;28;20674;-86
2022/11/04 07:47:04;;;;;;;10.27;8.43;;;;;;;;;;6582718;28;20168;-86
2022/11/04 07:50:14;;;;;;;14.00;9.97;;;;;;;;;;6585884;28;20169;-85
2022/11/04 07:53:25;;;;;;;11.47;8.80;;;;;;;;;;6586111;28;20225;-85
2022/11/04 07:56:35;;;;;;;14.63;9.63;;;;;;;;;;6586548;28;20181;-85
2022/11/04 07:59:46;;;;;;;15.50;10.37;;;;;;;;;;6587080;28;20160;-85
2022/11/04 08:02:56;;;;;;;15.97;10.70;;;;;;;;;;6587300;28;20165;-86
2022/11/04 08:06:08;;;;;;;14.20;10.03;;;;;;;;;;6586370;28;20173;-86
2022/11/04 08:09:18;;;;;;;14.23;10.53;;;;;;;;;;6580950;28;20173;-86
2022/11/04 08:12:30;;;;;;;15.70;10.60;;;;;;;;;;6574091;28;20174;-86
2022/11/04 08:15:40;;;;;;;15.70;9.40;;;;;;;;;;6574813;28;20204;-87
2022/11/04 08:18:53;;;;;;;13.53;10.07;;;;;;;;;;6581447;28;20276;-88
2022/11/04 08:22:03;;;;;;;11.73;9.37;;;;;;;;;;6574413;28;20177;-87
2022/11/04 08:25:14;;;;;;;14.17;9.57;;;;;;;;;;6571262;28;20177;-86
2022/11/04 08:28:24;;;;;;;16.07;10.03;;;;;;;;;;6556647;28;20180;-85
2022/11/04 08:31:35;;;;;;;12.13;9.17;;;;;;;;;;6562020;28;20173;-86
2022/11/04 08:34:45;;;;;;;12.73;9.43;;;;;;;;;;6543752;28;20201;-87
2022/11/04 08:37:55;;;;;;;11.33;9.43;;;;;;;;;;6578520;28;20177;-85
2022/11/04 08:41:06;;;;;;;13.07;9.73;;;;;;;;;;6586170;28;20180;-87
2022/11/04 08:44:17;;;;;;;13.20;10.50;;;;;;;;;;6586013;28;20179;-86
2022/11/04 08:47:27;;;;;;;12.90;10.17;;;;;;;;;;6585320;28;20204;-86
2022/11/04 08:50:37;;;;;;;12.47;10.30;;;;;;;;;;6587722;28;20169;-86
2022/11/04 08:53:48;;;;;;;12.50;9.13;;;;;;;;;;6599627;28;20224;-85
2022/11/04 08:56:58;;;;;;;10.80;8.93;;;;;;;;;;6599497;28;20177;-83
2022/11/04 09:00:09;;;;;;;14.73;9.67;;;;;;;;;;6590519;28;20189;-82
2022/11/04 09:03:19;;;;;;;12.70;9.20;;;;;;;;;;6556112;28;20169;-85
2022/11/04 09:06:33;;;;;;;9.10;8.20;;;;;;;;;;6573442;28;20177;-87
2022/11/04 09:09:43;;;;;;;11.27;9.43;;;;;;;;;;6572659;28;20168;-86
2022/11/04 09:12:53;;;;;;;10.00;8.77;;;;;;;;;;6572875;28;20165;-86
2022/11/04 09:16:04;;;;;;;11.63;9.33;;;;;;;;;;6572418;28;20263;-87
2022/11/04 09:19:14;;;;;;;10.63;8.97;;;;;;;;;;6572997;28;20173;-87
2022/11/04 09:22:25;;;;;;;13.33;9.07;;;;;;;;;;6572606;28;20162;-86
2022/11/04 09:25:35;;;;;;;11.93;8.70;;;;;;;;;;6567360;28;20260;-86
2022/11/04 09:28:45;;;;;;;9.67;8.30;;;;;;;;;;6571687;28;20649;-88
2022/11/04 09:31:56;;;;;;;10.47;7.83;;;;;;;;;;6566211;28;20177;-85
2022/11/04 09:35:06;;;;;;;11.83;8.00;;;;;;;;;;6573602;28;20231;-89
2022/11/04 09:38:16;;;;;;;12.60;8.77;;;;;;;;;;6573461;28;20259;-86
2022/11/04 09:41:30;;;;;;;11.37;8.47;;;;;;;;;;6571672;28;20173;-87
2022/11/04 09:44:47;;;;;;;11.23;8.37;;;;;;;;;;6571782;28;20173;-86
2022/11/04 09:48:02;;;;;;;12.80;9.03;;;;;;;;;;6571845;28;20208;-88
2022/11/04 09:51:12;;;;;;;12.90;8.87;;;;;;;;;;6571475;28;20237;-87
2022/11/04 09:54:32;;;;;;;11.80;8.80;;;;;;;;;;6569937;28;20601;-87
2022/11/04 09:57:42;;;;;;;13.17;10.43;;;;;;;;;;6565280;28;20181;-86
2022/11/04 10:01:01;;;;;;;12.77;9.50;;;;;;;;;;6569982;28;20637;-86
2022/11/04 10:04:35;;;;;;;11.30;9.33;;;;;;;;;;6571338;28;20188;-86
2022/11/04 10:07:59;;;;;;;11.77;9.30;;;;;;;;;;6564242;28;20200;-87
2022/11/04 10:11:09;;;;;;;10.73;8.50;;;;;;;;;;6571869;28;20220;-86
2022/11/04 10:14:39;;;;;;;10.47;8.43;;;;;;;;;;6570919;28;20197;-87
2022/11/04 10:17:57;;;;;;;12.77;9.37;;;;;;;;;;6534691;28;20276;-88
2022/11/04 10:21:34;;;;;;;11.37;9.40;;;;;;;;;;6528848;28;20619;-87
2022/11/04 10:24:50;;;;;;;11.60;8.73;;;;;;;;;;6546156;28;20173;-87
2022/11/04 10:28:01;;;;;;;14.07;8.27;;;;;;;;;;6546445;28;20568;-88
2022/11/04 10:31:15;;;;;;;11.83;9.23;;;;;;;;;;6551635;28;20188;-88
2022/11/04 10:34:30;;;;;;;12.23;9.00;;;;;;;;;;6570533;28;20226;-88
2022/11/04 10:37:40;;;;;;;11.97;8.83;;;;;;;;;;6570511;28;20176;-89
2022/11/04 10:40:52;;;;;;;11.30;8.27;;;;;;;;;;6570789;28;20177;-87
2022/11/04 10:44:02;;;;;;;14.00;8.07;;;;;;;;;;6569713;28;20231;-85
2022/11/04 10:47:27;;;;;;;10.43;7.97;;;;;;;;;;6570361;28;20169;-85
2022/11/04 10:50:37;;;;;;;8.73;7.17;;;;;;;;;;6571492;28;20304;-85
2022/11/04 10:53:55;;;;;;;10.17;8.63;;;;;;;;;;6571154;28;20665;-84
2022/11/04 10:57:05;;;;;;;11.27;7.73;;;;;;;;;;6570630;28;20199;-86
2022/11/04 11:00:38;;;;;;;8.63;7.73;;;;;;;;;;6571281;28;20165;-85
2022/11/04 11:03:49;;;;;;;12.17;8.27;;;;;;;;;;6571170;28;20187;-86
2022/11/04 11:07:09;;;;;;;9.63;8.17;;;;;;;;;;6569947;28;20165;-86
2022/11/04 11:10:22;;;;;;;10.27;8.53;;;;;;;;;;6580812;28;20204;-86
2022/11/04 11:13:37;;;;;;;8.53;7.40;;;;;;;;;;6572892;28;20231;-85
2022/11/04 11:16:47;;;;;;;11.30;8.23;;;;;;;;;;6570162;28;20260;-85
2022/11/04 11:20:06;;;;;;;11.90;8.90;;;;;;;;;;6569965;28;20173;-85
2022/11/04 11:23:35;;;;;;;10.83;8.70;;;;;;;;;;6571884;28;20158;-86
2022/11/04 11:26:49;;;;;;;9.77;7.97;;;;;;;;;;6575146;28;20196;-86
2022/11/04 11:29:59;;;;;;;9.17;7.17;;;;;;;;;;6556940;28;20169;-84
2022/11/04 11:33:13;;;;;;;11.87;8.47;;;;;;;;;;6571668;28;20184;-85
2022/11/04 11:36:28;;;;;;;10.60;8.63;;;;;;;;;;6574658;28;20205;-86
2022/11/04 11:39:42;;;;;;;10.63;8.20;;;;;;;;;;6574682;28;20668;-86
2022/11/04 11:42:54;;;;;;;11.23;7.93;;;;;;;;;;6573718;28;20709;-86
2022/11/04 11:46:05;;;;;;;9.40;7.87;;;;;;;;;;6574781;28;20641;-83
2022/11/04 11:49:27;;;;;;;9.73;8.20;;;;;;;;;;6573757;28;20204;-88
2022/11/04 11:52:39;;;;;;;9.53;8.30;;;;;;;;;;6570986;28;20233;-84
2022/11/04 11:55:55;;;;;;;9.07;7.07;;;;;;;;;;6571423;28;20242;-84
2022/11/04 11:59:14;;;;;;;10.10;7.83;;;;;;;;;;6572284;28;20594;-84
2022/11/04 12:02:28;;;;;;;8.70;7.20;;;;;;;;;;6572668;28;20208;-84
2022/11/04 12:05:51;;;;;;;10.67;7.63;;;;;;;;;;6571807;28;20169;-85
2022/11/04 12:09:24;;;;;;;9.20;7.30;;;;;;;;;;6570009;28;21263;-85
2022/11/04 12:12:52;;;;;;;8.40;7.23;;;;;;;;;;6545315;28;20208;-84
2022/11/04 12:16:06;;;;;;;10.17;7.50;;;;;;;;;;6573742;28;20599;-85
2022/11/04 12:19:19;;;;;;;10.00;8.07;;;;;;;;;;6573695;28;20173;-85
2022/11/04 12:22:46;;;;;;;9.30;7.77;;;;;;;;;;6556464;28;20276;-86
2022/11/04 12:26:13;;;;;;;8.73;7.00;;;;;;;;;;6556444;28;20221;-86
2022/11/04 12:29:29;;;;;;;8.23;7.07;;;;;;;;;;6574637;28;20173;-86
2022/11/04 12:32:58;;;;;;;9.97;7.30;;;;;;;;;;6571367;28;20300;-84
2022/11/04 12:36:23;;;;;;;9.07;7.60;;;;;;;;;;6569942;28;20279;-84
2022/11/04 12:39:33;;;;;;;9.37;7.30;;;;;;;;;;6574574;28;20200;-89
2022/11/04 12:42:44;;;;;;;8.47;7.37;;;;;;;;;;6572408;28;20192;-86
2022/11/04 12:45:54;;;;;;;9.23;7.43;;;;;;;;;;6571596;28;20180;-86
2022/11/04 12:49:04;;;;;;;13.57;10.73;;;;;;;;;;6573130;28;20264;-87
2022/11/04 12:52:18;;;;;;;10.07;9.07;;;;;;;;;;6573015;28;20661;-88
2022/11/04 12:55:31;;;;;;;8.70;7.43;;;;;;;;;;6572834;28;20645;-87
2022/11/04 12:58:42;;;;;;;12.17;8.57;;;;;;;;;;6573766;28;20173;-85
2022/11/04 13:01:55;;;;;;;9.13;8.07;;;;;;;;;;6571671;28;20223;-86
2022/11/04 13:05:08;;;;;;;10.63;9.20;;;;;;;;;;6570954;28;20189;-88
2022/11/04 13:08:33;;;;;;;9.27;7.83;;;;;;;;;;6570573;28;20180;-86
2022/11/04 13:11:44;;;;;;;13.03;9.73;;;;;;;;;;6572244;28;20166;-87
2022/11/04 13:15:14;;;;;;;13.07;8.10;;;;;;;;;;6571564;28;20243;-87
2022/11/04 13:18:26;;;;;;;12.60;7.90;;;;;;;;;;6572550;28;20221;-87
2022/11/04 13:21:37;;;;;;;12.80;9.33;;;;;;;;;;6555040;28;20183;-86
2022/11/04 13:25:00;;;;;;;12.03;8.80;;;;;;;;;;6572476;28;20177;-86
2022/11/04 13:28:15;;;;;;;9.90;8.23;;;;;;;;;;6572733;28;20174;-86
2022/11/04 13:31:25;;;;;;;10.87;8.13;;;;;;;;;;6572220;28;20182;-87
2022/11/04 13:34:46;;;;;;;10.63;8.17;;;;;;;;;;6555476;28;20221;-86
2022/11/04 13:37:57;;;;;;;9.10;7.50;;;;;;;;;;6572756;28;20514;-86
2022/11/04 13:41:24;;;;;;;10.97;8.20;;;;;;;;;;6571741;28;20231;-86
2022/11/04 13:44:36;;;;;;;12.07;8.17;;;;;;;;;;6555617;28;20684;-87
2022/11/04 13:47:49;;;;;;;12.03;8.83;;;;;;;;;;6572263;28;20172;-87
2022/11/04 13:51:01;;;;;;;12.97;8.60;;;;;;;;;;6571793;28;20177;-87
2022/11/04 13:54:23;;;;;;;9.23;7.40;;;;;;;;;;6572283;28;20255;-87
2022/11/04 13:57:54;;;;;;;9.23;8.23;;;;;;;;;;6555279;28;20634;-87
2022/11/04 14:01:24;;;;;;;13.03;9.20;;;;;;;;;;6571994;28;20195;-87
2022/11/04 14:04:37;;;;;;;9.23;7.80;;;;;;;;;;6571279;28;20160;-87
2022/11/04 14:08:07;;;;;;;9.90;8.33;;;;;;;;;;6569567;28;20244;-87
2022/11/04 14:11:18;;;;;;;10.70;8.30;;;;;;;;;;6568941;28;20185;-89
2022/11/04 14:14:28;;;;;;;12.70;9.03;;;;;;;;;;6571532;28;20687;-89
2022/11/04 14:17:38;;;;;;;9.47;8.30;;;;;;;;;;6571954;28;20165;-87
2022/11/04 14:21:07;;;;;;;9.73;8.47;;;;;;;;;;6570862;28;20169;-87
2022/11/04 14:24:18;;;;;;;11.60;9.60;;;;;;;;;;6571210;28;20165;-88
2022/11/04 14:27:38;;;;;;;13.67;9.57;;;;;;;;;;6571009;28;20244;-87
2022/11/04 14:30:56;;;;;;;14.50;10.47;;;;;;;;;;6571030;28;20165;-88
2022/11/04 14:34:21;;;;;;;15.27;10.67;;;;;;;;;;6570116;28;20197;-88
2022/11/04 14:37:35;;;;;;;14.90;10.37;;;;;;;;;;6570199;28;20262;-88
2022/11/04 14:40:47;;;;;;;15.67;11.63;;;;;;;;;;6570894;28;20173;-88
2022/11/04 14:43:59;;;;;;;13.83;10.07;;;;;;;;;;6571156;28;20176;-87
2022/11/04 14:47:21;;;;;;;12.37;9.50;;;;;;;;;;6569199;28;20181;-87
2022/11/04 14:50:32;;;;;;;11.80;9.30;;;;;;;;;;6571050;28;20169;-87
2022/11/04 14:53:43;;;;;;;12.67;9.20;;;;;;;;;;6571958;28;20560;-87
2022/11/04 14:57:05;;;;;;;12.17;10.10;;;;;;;;;;6570319;28;20184;-87
2022/11/04 15:00:24;;;;;;;12.57;10.20;;;;;;;;;;6570675;28;20256;-87
2022/11/04 15:03:36;;;;;;;14.17;11.10;;;;;;;;;;6570539;28;20172;-86
2022/11/04 15:06:56;;;;;;;12.20;9.93;;;;;;;;;;6570433;28;20179;-87
2022/11/04 15:10:23;;;;;;;14.87;11.03;;;;;;;;;;6570061;28;20255;-86
2022/11/04 15:13:42;;;;;;;13.03;10.30;;;;;;;;;;6566397;28;20185;-86
2022/11/04 15:16:54;;;;;;;15.87;10.70;;;;;;;;;;6572841;28;20173;-87
2022/11/04 15:20:05;;;;;;;12.30;9.93;;;;;;;;;;6569981;28;20169;-88
2022/11/04 15:23:18;;;;;;;19.20;13.77;;;;;;;;;;6569574;28;20189;-88
2022/11/04 15:26:30;;;;;;;13.97;10.23;;;;;;;;;;6563104;28;20173;-88
2022/11/04 15:29:51;;;;;;;15.77;11.83;;;;;;;;;;6569469;28;20542;-89
2022/11/04 15:33:02;;;;;;;20.53;13.80;;;;;;;;;;6571840;28;20538;-88
2022/11/04 15:36:15;;;;;;;15.87;11.30;;;;;;;;;;6596694;28;20193;-88
2022/11/04 15:39:29;;;;;;;16.17;12.93;;;;;;;;;;6595816;28;20565;-88
2022/11/04 15:42:43;;;;;;;14.97;11.50;;;;;;;;;;6595849;28;20179;-87
2022/11/04 15:45:54;;;;;;;28.93;21.70;;;;;;;;;;6595407;28;20176;-87
2022/11/04 15:49:06;;;;;;;22.23;14.33;;;;;;;;;;6595322;28;20247;-88
2022/11/04 15:52:24;;;;;;;18.83;13.40;;;;;;;;;;6581763;28;20243;-90
2022/11/04 15:55:35;;;;;;;16.10;12.00;;;;;;;;;;6569329;28;20209;-91
2022/11/04 15:58:46;;;;;;;19.37;12.47;;;;;;;;;;6569816;28;20551;-90
2022/11/04 16:01:56;;;;;;;20.53;14.53;;;;;;;;;;6568398;28;20181;-90
2022/11/04 16:05:09;;;;;;;16.73;12.53;;;;;;;;;;6569347;28;20223;-92
2022/11/04 16:08:26;;;;;;;20.67;13.50;;;;;;;;;;6568295;28;20260;-90
2022/11/04 16:11:36;;;;;;;21.80;16.00;;;;;;;;;;6574076;28;20245;-90
2022/11/04 16:14:48;;;;;;;25.37;17.77;;;;;;;;;;6574433;28;20258;-89
2022/11/04 16:17:59;;;;;;;27.90;18.13;;;;;;;;;;6571906;28;20181;-90
2022/11/04 16:21:24;;;;;;;22.47;15.30;;;;;;;;;;6573453;28;20232;-89
2022/11/04 16:24:39;;;;;;;22.63;16.10;;;;;;;;;;6574175;28;20223;-87
2022/11/04 16:27:49;;;;;;;21.33;14.60;;;;;;;;;;6574204;28;20169;-89
2022/11/04 16:31:03;;;;;;;21.03;13.60;;;;;;;;;;6573531;28;20260;-87
2022/11/04 16:34:13;;;;;;;28.23;18.43;;;;;;;;;;6571933;28;20233;-89
2022/11/04 16:37:26;;;;;;;24.53;16.77;;;;;;;;;;6574514;28;20568;-89
2022/11/04 16:40:44;;;;;;;22.43;15.57;;;;;;;;;;6573701;28;20256;-88
2022/11/04 16:43:56;;;;;;;21.33;14.90;;;;;;;;;;6572125;28;20557;-92
2022/11/04 16:47:09;;;;;;;31.97;19.57;;;;;;;;;;6573476;28;20520;-90
2022/11/04 16:50:19;;;;;;;32.77;22.67;;;;;;;;;;6573800;28;20180;-89
2022/11/04 16:53:30;;;;;;;26.53;17.57;;;;;;;;;;6566486;28;20764;-89
2022/11/04 16:56:41;;;;;;;25.20;18.00;;;;;;;;;;6560948;28;20269;-89
2022/11/04 16:59:55;;;;;;;25.23;17.83;;;;;;;;;;6547093;28;20189;-88
2022/11/04 17:03:20;;;;;;;21.73;14.30;;;;;;;;;;6571013;28;20181;-88
2022/11/04 17:06:30;;;;;;;22.57;17.07;;;;;;;;;;6569329;28;20181;-88
2022/11/04 17:09:41;;;;;;;22.77;15.57;;;;;;;;;;6559331;28;20280;-88
2022/11/04 17:12:51;;;;;;;24.33;16.43;;;;;;;;;;6565599;28;20181;-87
2022/11/04 17:16:02;;;;;;;28.43;20.23;;;;;;;;;;6551361;28;20582;-89
2022/11/04 17:19:15;;;;;;;32.03;20.33;;;;;;;;;;6568026;28;20178;-89
2022/11/04 17:22:26;;;;;;;38.97;25.77;;;;;;;;;;6568526;28;20173;-85
2022/11/04 17:25:36;;;;;;;27.83;18.03;;;;;;;;;;6561474;28;20181;-87
2022/11/04 17:28:46;;;;;;;26.93;16.17;;;;;;;;;;6560892;28;20174;-86
2022/11/04 17:31:57;;;;;;;32.27;19.43;;;;;;;;;;6564507;28;20177;-85
2022/11/04 17:35:08;;;;;;;30.30;18.23;;;;;;;;;;6566162;28;20204;-86
2022/11/04 17:38:18;;;;;;;29.40;18.67;;;;;;;;;;6568507;28;20173;-88
2022/11/04 17:44:57;;;;;;;56.30;28.80;;;;;;;;;;6567663;28;20183;-90
2022/11/04 17:48:09;;;;;;;36.57;19.60;;;;;;;;;;6564672;28;20177;-88
2022/11/04 17:51:19;;;;;;;33.50;19.17;;;;;;;;;;6550896;28;20204;-87
2022/11/04 17:54:30;;;;;;;28.50;18.67;;;;;;;;;;6569403;28;20286;-87
2022/11/04 17:57:40;;;;;;;40.60;22.97;;;;;;;;;;6568641;28;20208;-88
2022/11/04 18:00:50;;;;;;;37.97;23.40;;;;;;;;;;6568426;28;20281;-89
2022/11/04 18:04:01;;;;;;;33.73;23.03;;;;;;;;;;6568112;28;20560;-90
2022/11/04 18:07:11;;;;;;;27.23;18.97;;;;;;;;;;6550574;28;20189;-88
2022/11/04 18:10:22;;;;;;;29.97;19.67;;;;;;;;;;6563244;28;20238;-88
2022/11/04 18:13:33;;;;;;;45.83;26.50;;;;;;;;;;6565276;28;20185;-88
2022/11/04 18:16:45;;;;;;;29.50;19.10;;;;;;;;;;6567381;28;20185;-88
2022/11/04 18:19:55;;;;;;;31.97;21.07;;;;;;;;;;6565491;28;20242;-89
2022/11/04 18:23:06;;;;;;;28.17;19.73;;;;;;;;;;6567354;28;20234;-88
2022/11/04 18:26:16;;;;;;;28.83;20.17;;;;;;;;;;6569868;28;20180;-87
2022/11/04 18:29:26;;;;;;;25.30;18.53;;;;;;;;;;6569433;28;20204;-87
2022/11/04 18:32:37;;;;;;;28.33;18.50;;;;;;;;;;6567070;28;20566;-85
2022/11/04 18:35:47;;;;;;;31.00;19.87;;;;;;;;;;6564769;28;20212;-86
2022/11/04 18:38:58;;;;;;;27.70;18.83;;;;;;;;;;6551155;28;20181;-89
2022/11/04 18:42:08;;;;;;;26.67;19.47;;;;;;;;;;6566778;28;20173;-84
2022/11/04 18:45:19;;;;;;;29.73;20.40;;;;;;;;;;6568021;28;20645;-87
2022/11/04 18:48:29;;;;;;;27.53;19.20;;;;;;;;;;6565213;28;20178;-87
2022/11/04 18:51:39;;;;;;;29.00;19.40;;;;;;;;;;6565805;28;20315;-87
2022/11/04 18:54:50;;;;;;;33.63;20.23;;;;;;;;;;6566378;28;20760;-87
2022/11/04 18:58:00;;;;;;;24.90;18.13;;;;;;;;;;6565429;28;20177;-87
2022/11/04 19:01:16;;;;;;;30.57;20.37;;;;;;;;;;6565077;28;20573;-87
2022/11/04 19:04:26;;;;;;;28.97;19.63;;;;;;;;;;6566618;28;20696;-87
2022/11/04 19:07:37;;;;;;;25.87;18.00;;;;;;;;;;6567683;28;20198;-87
2022/11/04 19:10:47;;;;;;;26.03;18.03;;;;;;;;;;6567589;28;20181;-87
2022/11/04 19:13:59;;;;;;;28.87;18.90;;;;;;;;;;6567439;28;20213;-87
2022/11/04 19:17:09;;;;;;;29.90;20.37;;;;;;;;;;6565274;28;20180;-88
2022/11/04 19:20:20;;;;;;;30.17;19.93;;;;;;;;;;6565564;28;20263;-85
2022/11/04 19:23:31;;;;;;;31.60;21.03;;;;;;;;;;6563413;28;20195;-88
2022/11/04 19:26:41;;;;;;;28.17;17.10;;;;;;;;;;6566208;28;20600;-88
2022/11/04 19:29:51;;;;;;;24.00;16.20;;;;;;;;;;6564458;28;20173;-87
2022/11/04 19:33:01;;;;;;;27.40;19.77;;;;;;;;;;6564217;28;20625;-85
2022/11/04 19:36:13;;;;;;;29.20;18.90;;;;;;;;;;6560894;28;20730;-85